Des Peres, Missouri
Current Conditions -  °F | °C
As of 3:51 AM on Saturday 29 Nov 2014 (Local Time) from KSTL Reporting Station
Broken Clouds Broken Clouds  
Wind Chill: 41°   Ceiling: 25000
Heat Index: 45°   Visibility: 10mi
Dew Point: 35°   Wind: 8mph
Humidity: 68%   Direction: 160°SSE
Pressure: 29.81"   Gusts: NA
Location:  38.5796°N, 90.4197°W
Report Text: KSTL 290951Z 16007KT 10SM BKN250 07/02 A2981 RMK AO2 SLP096 T00720017
Loading
Personal Weather Stations






























Interactive Weather Map New forecast layout! Learn more

10-Day Weather Forecast

Advertisements
Track Severe Weather on mobile